sensor_id;sensor_type;location;lat;lon;timestamp;P1;durP1;ratioP1;P2;durP2;ratioP2
12840;SDS011;6487;48.626;12.486;2023-05-02T00:01:10;5.40;;;5.00;;
12840;SDS011;6487;48.626;12.486;2023-05-02T00:03:41;6.20;;;5.63;;
12840;SDS011;6487;48.626;12.486;2023-05-02T00:06:10;6.93;;;6.30;;
12840;SDS011;6487;48.626;12.486;2023-05-02T00:08:38;6.70;;;6.10;;
12840;SDS011;6487;48.626;12.486;2023-05-02T00:11:10;7.20;;;6.57;;
12840;SDS011;6487;48.626;12.486;2023-05-02T00:13:42;6.67;;;6.07;;
12840;SDS011;6487;48.626;12.486;2023-05-02T00:16:10;6.80;;;6.23;;
12840;SDS011;6487;48.626;12.486;2023-05-02T00:18:41;6.43;;;5.83;;
12840;SDS011;6487;48.626;12.486;2023-05-02T00:21:10;7.07;;;6.43;;
12840;SDS011;6487;48.626;12.486;2023-05-02T00:23:38;7.10;;;6.50;;
12840;SDS011;6487;48.626;12.486;2023-05-02T00:26:07;6.73;;;6.13;;
12840;SDS011;6487;48.626;12.486;2023-05-02T00:28:36;6.63;;;6.07;;
12840;SDS011;6487;48.626;12.486;2023-05-02T00:31:06;7.73;;;5.70;;
12840;SDS011;6487;48.626;12.486;2023-05-02T00:33:38;6.73;;;6.07;;
12840;SDS011;6487;48.626;12.486;2023-05-02T00:36:11;6.10;;;5.60;;
12840;SDS011;6487;48.626;12.486;2023-05-02T00:38:41;5.83;;;5.33;;
12840;SDS011;6487;48.626;12.486;2023-05-02T00:41:09;7.40;;;5.50;;
12840;SDS011;6487;48.626;12.486;2023-05-02T00:43:37;6.97;;;6.37;;
12840;SDS011;6487;48.626;12.486;2023-05-02T00:46:07;6.20;;;5.70;;
12840;SDS011;6487;48.626;12.486;2023-05-02T00:48:38;5.57;;;5.13;;
12840;SDS011;6487;48.626;12.486;2023-05-02T00:51:06;7.20;;;5.60;;
12840;SDS011;6487;48.626;12.486;2023-05-02T00:53:41;6.13;;;5.53;;
12840;SDS011;6487;48.626;12.486;2023-05-02T00:56:09;5.73;;;5.23;;
12840;SDS011;6487;48.626;12.486;2023-05-02T00:58:38;5.53;;;5.10;;
12840;SDS011;6487;48.626;12.486;2023-05-02T01:01:13;5.33;;;4.93;;
12840;SDS011;6487;48.626;12.486;2023-05-02T01:03:59;6.77;;;5.40;;
12840;SDS011;6487;48.626;12.486;2023-05-02T01:06:45;5.80;;;5.27;;
12840;SDS011;6487;48.626;12.486;2023-05-02T01:09:25;5.40;;;4.90;;
12840;SDS011;6487;48.626;12.486;2023-05-02T01:12:05;5.83;;;5.33;;
12840;SDS011;6487;48.626;12.486;2023-05-02T01:14:44;5.97;;;5.40;;
12840;SDS011;6487;48.626;12.486;2023-05-02T01:17:19;5.93;;;4.90;;
12840;SDS011;6487;48.626;12.486;2023-05-02T01:19:58;5.90;;;5.40;;
12840;SDS011;6487;48.626;12.486;2023-05-02T01:22:35;5.97;;;5.47;;
12840;SDS011;6487;48.626;12.486;2023-05-02T01:25:07;6.20;;;5.70;;
12840;SDS011;6487;48.626;12.486;2023-05-02T01:27:50;5.73;;;5.23;;
12840;SDS011;6487;48.626;12.486;2023-05-02T01:30:27;6.30;;;5.70;;
12840;SDS011;6487;48.626;12.486;2023-05-02T01:33:01;6.10;;;5.50;;
12840;SDS011;6487;48.626;12.486;2023-05-02T01:35:31;6.00;;;5.40;;
12840;SDS011;6487;48.626;12.486;2023-05-02T01:38:01;7.17;;;6.47;;
12840;SDS011;6487;48.626;12.486;2023-05-02T01:40:32;6.67;;;6.07;;
12840;SDS011;6487;48.626;12.486;2023-05-02T01:43:03;6.20;;;5.70;;
12840;SDS011;6487;48.626;12.486;2023-05-02T01:45:35;5.67;;;5.17;;
12840;SDS011;6487;48.626;12.486;2023-05-02T01:48:05;6.20;;;5.70;;
12840;SDS011;6487;48.626;12.486;2023-05-02T01:50:35;6.13;;;5.63;;
12840;SDS011;6487;48.626;12.486;2023-05-02T01:53:05;6.40;;;5.83;;
12840;SDS011;6487;48.626;12.486;2023-05-02T01:55:39;6.33;;;5.73;;
12840;SDS011;6487;48.626;12.486;2023-05-02T01:58:11;6.30;;;5.70;;
12840;SDS011;6487;48.626;12.486;2023-05-02T02:00:42;6.40;;;5.07;;
12840;SDS011;6487;48.626;12.486;2023-05-02T02:03:15;6.47;;;5.77;;
12840;SDS011;6487;48.626;12.486;2023-05-02T02:05:45;6.37;;;5.77;;
12840;SDS011;6487;48.626;12.486;2023-05-02T02:08:16;6.03;;;5.53;;
12840;SDS011;6487;48.626;12.486;2023-05-02T02:10:45;6.70;;;6.10;;
12840;SDS011;6487;48.626;12.486;2023-05-02T02:13:22;7.80;;;6.17;;
12840;SDS011;6487;48.626;12.486;2023-05-02T02:15:58;5.83;;;5.33;;
12840;SDS011;6487;48.626;12.486;2023-05-02T02:18:31;5.67;;;5.27;;
12840;SDS011;6487;48.626;12.486;2023-05-02T02:21:03;6.50;;;5.90;;
12840;SDS011;6487;48.626;12.486;2023-05-02T02:23:36;6.37;;;5.40;;
12840;SDS011;6487;48.626;12.486;2023-05-02T02:26:08;6.97;;;6.37;;
12840;SDS011;6487;48.626;12.486;2023-05-02T02:28:39;7.50;;;6.80;;
12840;SDS011;6487;48.626;12.486;2023-05-02T02:31:09;7.13;;;6.53;;
12840;SDS011;6487;48.626;12.486;2023-05-02T02:33:37;7.27;;;6.60;;
12840;SDS011;6487;48.626;12.486;2023-05-02T02:36:08;6.77;;;6.10;;
12840;SDS011;6487;48.626;12.486;2023-05-02T02:38:53;7.33;;;6.30;;
12840;SDS011;6487;48.626;12.486;2023-05-02T02:41:32;8.70;;;7.40;;
12840;SDS011;6487;48.626;12.486;2023-05-02T02:44:09;7.73;;;7.03;;
12840;SDS011;6487;48.626;12.486;2023-05-02T02:46:55;8.10;;;7.30;;
12840;SDS011;6487;48.626;12.486;2023-05-02T02:49:37;9.30;;;8.50;;
12840;SDS011;6487;48.626;12.486;2023-05-02T02:52:17;8.40;;;7.53;;
12840;SDS011;6487;48.626;12.486;2023-05-02T02:54:55;8.33;;;7.53;;
12840;SDS011;6487;48.626;12.486;2023-05-02T02:57:35;7.87;;;7.17;;
12840;SDS011;6487;48.626;12.486;2023-05-02T03:00:10;8.33;;;7.53;;
12840;SDS011;6487;48.626;12.486;2023-05-02T03:02:45;9.13;;;7.90;;
12840;SDS011;6487;48.626;12.486;2023-05-02T03:05:15;8.23;;;7.53;;
12840;SDS011;6487;48.626;12.486;2023-05-02T03:07:47;8.10;;;7.37;;
12840;SDS011;6487;48.626;12.486;2023-05-02T03:10:15;8.70;;;7.90;;
12840;SDS011;6487;48.626;12.486;2023-05-02T03:12:43;8.97;;;8.17;;
12840;SDS011;6487;48.626;12.486;2023-05-02T03:15:23;8.53;;;7.77;;
12840;SDS011;6487;48.626;12.486;2023-05-02T03:18:18;8.97;;;8.07;;
12840;SDS011;6487;48.626;12.486;2023-05-02T03:20:49;10.77;;;8.03;;
12840;SDS011;6487;48.626;12.486;2023-05-02T03:23:18;10.40;;;9.40;;
12840;SDS011;6487;48.626;12.486;2023-05-02T03:25:46;8.67;;;7.97;;
12840;SDS011;6487;48.626;12.486;2023-05-02T03:28:14;9.70;;;8.83;;
12840;SDS011;6487;48.626;12.486;2023-05-02T03:30:46;11.97;;;8.63;;
12840;SDS011;6487;48.626;12.486;2023-05-02T03:33:14;9.43;;;8.53;;
12840;SDS011;6487;48.626;12.486;2023-05-02T03:35:44;9.63;;;8.73;;
12840;SDS011;6487;48.626;12.486;2023-05-02T03:38:12;9.03;;;8.23;;
12840;SDS011;6487;48.626;12.486;2023-05-02T03:40:40;9.07;;;8.17;;
12840;SDS011;6487;48.626;12.486;2023-05-02T03:43:09;9.43;;;8.47;;
12840;SDS011;6487;48.626;12.486;2023-05-02T03:45:40;9.17;;;8.30;;
12840;SDS011;6487;48.626;12.486;2023-05-02T03:48:08;8.90;;;8.10;;
12840;SDS011;6487;48.626;12.486;2023-05-02T03:50:37;9.63;;;8.83;;
12840;SDS011;6487;48.626;12.486;2023-05-02T03:53:07;9.63;;;8.63;;
12840;SDS011;6487;48.626;12.486;2023-05-02T03:55:38;11.30;;;9.40;;
12840;SDS011;6487;48.626;12.486;2023-05-02T03:58:08;9.70;;;8.67;;
12840;SDS011;6487;48.626;12.486;2023-05-02T04:00:38;9.20;;;8.30;;
12840;SDS011;6487;48.626;12.486;2023-05-02T04:03:09;9.93;;;9.03;;
12840;SDS011;6487;48.626;12.486;2023-05-02T04:05:38;10.07;;;9.07;;
12840;SDS011;6487;48.626;12.486;2023-05-02T04:08:07;10.57;;;8.70;;
12840;SDS011;6487;48.626;12.486;2023-05-02T04:10:36;9.77;;;8.80;;
12840;SDS011;6487;48.626;12.486;2023-05-02T04:13:07;9.73;;;8.83;;
12840;SDS011;6487;48.626;12.486;2023-05-02T04:15:36;9.77;;;8.87;;
12840;SDS011;6487;48.626;12.486;2023-05-02T04:18:04;9.33;;;8.50;;
12840;SDS011;6487;48.626;12.486;2023-05-02T04:20:36;9.73;;;8.77;;
12840;SDS011;6487;48.626;12.486;2023-05-02T04:23:08;11.00;;;9.90;;
12840;SDS011;6487;48.626;12.486;2023-05-02T04:25:36;10.27;;;9.17;;
12840;SDS011;6487;48.626;12.486;2023-05-02T04:28:05;10.33;;;9.27;;
12840;SDS011;6487;48.626;12.486;2023-05-02T04:30:38;10.53;;;9.53;;
12840;SDS011;6487;48.626;12.486;2023-05-02T04:33:06;10.67;;;9.67;;
12840;SDS011;6487;48.626;12.486;2023-05-02T04:35:35;10.33;;;9.43;;
12840;SDS011;6487;48.626;12.486;2023-05-02T04:38:06;10.53;;;9.63;;
12840;SDS011;6487;48.626;12.486;2023-05-02T04:40:36;11.37;;;10.27;;
12840;SDS011;6487;48.626;12.486;2023-05-02T04:43:07;10.27;;;9.37;;
12840;SDS011;6487;48.626;12.486;2023-05-02T04:45:35;10.93;;;9.93;;
12840;SDS011;6487;48.626;12.486;2023-05-02T04:48:04;11.53;;;9.93;;
12840;SDS011;6487;48.626;12.486;2023-05-02T04:50:32;11.30;;;10.20;;
12840;SDS011;6487;48.626;12.486;2023-05-02T04:53:04;12.10;;;10.47;;
12840;SDS011;6487;48.626;12.486;2023-05-02T04:55:33;14.60;;;11.23;;
12840;SDS011;6487;48.626;12.486;2023-05-02T04:58:02;13.30;;;12.10;;
12840;SDS011;6487;48.626;12.486;2023-05-02T05:00:30;13.77;;;12.50;;
12840;SDS011;6487;48.626;12.486;2023-05-02T05:03:01;12.53;;;11.33;;
12840;SDS011;6487;48.626;12.486;2023-05-02T05:05:31;12.07;;;10.83;;
12840;SDS011;6487;48.626;12.486;2023-05-02T05:08:00;11.77;;;10.67;;
12840;SDS011;6487;48.626;12.486;2023-05-02T05:10:29;11.33;;;10.30;;
12840;SDS011;6487;48.626;12.486;2023-05-02T05:12:59;12.07;;;10.80;;
12840;SDS011;6487;48.626;12.486;2023-05-02T05:15:27;13.30;;;10.10;;
12840;SDS011;6487;48.626;12.486;2023-05-02T05:17:55;11.83;;;10.73;;
12840;SDS011;6487;48.626;12.486;2023-05-02T05:20:27;11.23;;;10.23;;
12840;SDS011;6487;48.626;12.486;2023-05-02T05:22:55;11.37;;;10.20;;
12840;SDS011;6487;48.626;12.486;2023-05-02T05:25:24;11.53;;;9.87;;
12840;SDS011;6487;48.626;12.486;2023-05-02T05:27:52;11.60;;;10.40;;
12840;SDS011;6487;48.626;12.486;2023-05-02T05:30:22;10.43;;;9.53;;
12840;SDS011;6487;48.626;12.486;2023-05-02T05:32:54;11.00;;;9.80;;
12840;SDS011;6487;48.626;12.486;2023-05-02T05:35:23;11.83;;;10.83;;
12840;SDS011;6487;48.626;12.486;2023-05-02T05:37:52;10.53;;;9.50;;
12840;SDS011;6487;48.626;12.486;2023-05-02T05:40:21;10.70;;;9.60;;
12840;SDS011;6487;48.626;12.486;2023-05-02T05:42:49;11.50;;;10.50;;
12840;SDS011;6487;48.626;12.486;2023-05-02T05:45:17;10.93;;;9.93;;
12840;SDS011;6487;48.626;12.486;2023-05-02T05:47:47;12.03;;;9.87;;
12840;SDS011;6487;48.626;12.486;2023-05-02T05:50:16;10.80;;;9.77;;
12840;SDS011;6487;48.626;12.486;2023-05-02T05:52:45;11.17;;;10.03;;
12840;SDS011;6487;48.626;12.486;2023-05-02T05:55:13;11.50;;;10.50;;
12840;SDS011;6487;48.626;12.486;2023-05-02T05:57:41;10.77;;;9.83;;
12840;SDS011;6487;48.626;12.486;2023-05-02T06:00:10;10.87;;;9.87;;
12840;SDS011;6487;48.626;12.486;2023-05-02T06:02:40;10.80;;;9.87;;
12840;SDS011;6487;48.626;12.486;2023-05-02T06:05:10;10.80;;;9.90;;
12840;SDS011;6487;48.626;12.486;2023-05-02T06:07:38;12.13;;;10.93;;
12840;SDS011;6487;48.626;12.486;2023-05-02T06:10:07;10.53;;;9.63;;
12840;SDS011;6487;48.626;12.486;2023-05-02T06:12:36;10.30;;;9.50;;
12840;SDS011;6487;48.626;12.486;2023-05-02T06:15:05;11.17;;;10.07;;
12840;SDS011;6487;48.626;12.486;2023-05-02T06:17:34;11.07;;;10.07;;
12840;SDS011;6487;48.626;12.486;2023-05-02T06:20:02;10.77;;;9.77;;
12840;SDS011;6487;48.626;12.486;2023-05-02T06:22:33;11.20;;;10.20;;
12840;SDS011;6487;48.626;12.486;2023-05-02T06:25:01;11.20;;;10.17;;
12840;SDS011;6487;48.626;12.486;2023-05-02T06:27:31;10.50;;;9.50;;
12840;SDS011;6487;48.626;12.486;2023-05-02T06:29:59;11.33;;;10.13;;
12840;SDS011;6487;48.626;12.486;2023-05-02T06:32:29;11.10;;;10.10;;
12840;SDS011;6487;48.626;12.486;2023-05-02T06:34:57;10.97;;;10.07;;
12840;SDS011;6487;48.626;12.486;2023-05-02T06:37:26;10.50;;;9.60;;
12840;SDS011;6487;48.626;12.486;2023-05-02T06:39:55;9.87;;;9.07;;
12840;SDS011;6487;48.626;12.486;2023-05-02T06:42:24;11.90;;;10.77;;
12840;SDS011;6487;48.626;12.486;2023-05-02T06:44:52;11.47;;;10.43;;
12840;SDS011;6487;48.626;12.486;2023-05-02T06:47:21;10.40;;;9.37;;
12840;SDS011;6487;48.626;12.486;2023-05-02T06:49:50;9.87;;;9.00;;
12840;SDS011;6487;48.626;12.486;2023-05-02T06:52:19;9.47;;;8.67;;
12840;SDS011;6487;48.626;12.486;2023-05-02T06:54:47;10.23;;;9.33;;
12840;SDS011;6487;48.626;12.486;2023-05-02T06:57:19;10.50;;;9.60;;
12840;SDS011;6487;48.626;12.486;2023-05-02T06:59:48;10.03;;;9.17;;
12840;SDS011;6487;48.626;12.486;2023-05-02T07:02:16;9.43;;;8.63;;
12840;SDS011;6487;48.626;12.486;2023-05-02T07:04:44;10.70;;;9.80;;
12840;SDS011;6487;48.626;12.486;2023-05-02T07:07:13;9.90;;;9.00;;
12840;SDS011;6487;48.626;12.486;2023-05-02T07:09:44;9.53;;;8.73;;
12840;SDS011;6487;48.626;12.486;2023-05-02T07:12:12;8.53;;;7.73;;
12840;SDS011;6487;48.626;12.486;2023-05-02T07:14:42;10.07;;;9.17;;
12840;SDS011;6487;48.626;12.486;2023-05-02T07:17:12;10.53;;;9.63;;
12840;SDS011;6487;48.626;12.486;2023-05-02T07:19:41;10.20;;;9.00;;
12840;SDS011;6487;48.626;12.486;2023-05-02T07:22:11;10.53;;;9.40;;
12840;SDS011;6487;48.626;12.486;2023-05-02T07:24:39;10.23;;;9.23;;
12840;SDS011;6487;48.626;12.486;2023-05-02T07:27:08;11.83;;;10.57;;
12840;SDS011;6487;48.626;12.486;2023-05-02T07:29:38;11.83;;;10.63;;
12840;SDS011;6487;48.626;12.486;2023-05-02T07:32:09;11.20;;;10.30;;
12840;SDS011;6487;48.626;12.486;2023-05-02T07:34:37;11.60;;;10.50;;
12840;SDS011;6487;48.626;12.486;2023-05-02T07:37:05;11.40;;;10.43;;
12840;SDS011;6487;48.626;12.486;2023-05-02T07:39:34;11.30;;;10.30;;
12840;SDS011;6487;48.626;12.486;2023-05-02T07:42:02;11.33;;;10.33;;
12840;SDS011;6487;48.626;12.486;2023-05-02T07:44:31;11.80;;;10.83;;
12840;SDS011;6487;48.626;12.486;2023-05-02T07:47:00;12.37;;;11.20;;
12840;SDS011;6487;48.626;12.486;2023-05-02T07:49:30;11.67;;;10.57;;
12840;SDS011;6487;48.626;12.486;2023-05-02T07:51:58;13.47;;;12.07;;
12840;SDS011;6487;48.626;12.486;2023-05-02T07:54:26;12.40;;;11.30;;
12840;SDS011;6487;48.626;12.486;2023-05-02T07:56:55;12.33;;;11.23;;
12840;SDS011;6487;48.626;12.486;2023-05-02T07:59:28;13.40;;;12.10;;
12840;SDS011;6487;48.626;12.486;2023-05-02T08:01:57;12.73;;;11.63;;
12840;SDS011;6487;48.626;12.486;2023-05-02T08:04:25;12.70;;;11.40;;
12840;SDS011;6487;48.626;12.486;2023-05-02T08:06:56;13.47;;;12.30;;
12840;SDS011;6487;48.626;12.486;2023-05-02T08:09:24;12.87;;;11.70;;
12840;SDS011;6487;48.626;12.486;2023-05-02T08:11:52;12.93;;;11.53;;
12840;SDS011;6487;48.626;12.486;2023-05-02T08:14:21;12.37;;;11.33;;
12840;SDS011;6487;48.626;12.486;2023-05-02T08:16:49;12.43;;;11.33;;
12840;SDS011;6487;48.626;12.486;2023-05-02T08:19:17;13.20;;;11.93;;
12840;SDS011;6487;48.626;12.486;2023-05-02T08:21:46;13.83;;;12.63;;
12840;SDS011;6487;48.626;12.486;2023-05-02T08:24:16;14.87;;;13.67;;
12840;SDS011;6487;48.626;12.486;2023-05-02T08:26:47;14.67;;;13.37;;
12840;SDS011;6487;48.626;12.486;2023-05-02T08:29:16;14.43;;;13.13;;
12840;SDS011;6487;48.626;12.486;2023-05-02T08:31:44;14.23;;;13.03;;
12840;SDS011;6487;48.626;12.486;2023-05-02T08:34:12;13.97;;;12.67;;
12840;SDS011;6487;48.626;12.486;2023-05-02T08:36:41;12.83;;;11.67;;
12840;SDS011;6487;48.626;12.486;2023-05-02T08:39:10;13.97;;;12.57;;
12840;SDS011;6487;48.626;12.486;2023-05-02T08:41:39;13.13;;;11.93;;
12840;SDS011;6487;48.626;12.486;2023-05-02T08:44:08;13.00;;;11.87;;
12840;SDS011;6487;48.626;12.486;2023-05-02T08:46:36;12.73;;;11.53;;
12840;SDS011;6487;48.626;12.486;2023-05-02T08:49:09;12.23;;;11.10;;
12840;SDS011;6487;48.626;12.486;2023-05-02T08:51:38;12.23;;;11.13;;
12840;SDS011;6487;48.626;12.486;2023-05-02T08:54:08;12.63;;;11.63;;
12840;SDS011;6487;48.626;12.486;2023-05-02T08:56:36;11.37;;;10.37;;
12840;SDS011;6487;48.626;12.486;2023-05-02T08:59:06;12.13;;;11.10;;
12840;SDS011;6487;48.626;12.486;2023-05-02T09:01:35;11.83;;;10.83;;
12840;SDS011;6487;48.626;12.486;2023-05-02T09:04:05;11.80;;;10.80;;
12840;SDS011;6487;48.626;12.486;2023-05-02T09:06:34;12.57;;;11.33;;
12840;SDS011;6487;48.626;12.486;2023-05-02T09:09:03;11.93;;;10.93;;
12840;SDS011;6487;48.626;12.486;2023-05-02T09:11:32;12.33;;;11.17;;
12840;SDS011;6487;48.626;12.486;2023-05-02T09:14:00;11.67;;;10.57;;
12840;SDS011;6487;48.626;12.486;2023-05-02T09:16:31;12.83;;;11.57;;
12840;SDS011;6487;48.626;12.486;2023-05-02T09:19:06;10.97;;;9.97;;
12840;SDS011;6487;48.626;12.486;2023-05-02T09:21:35;11.13;;;10.17;;
12840;SDS011;6487;48.626;12.486;2023-05-02T09:24:13;10.77;;;9.87;;
12840;SDS011;6487;48.626;12.486;2023-05-02T09:26:44;13.07;;;11.77;;
12840;SDS011;6487;48.626;12.486;2023-05-02T09:29:25;11.90;;;10.90;;
12840;SDS011;6487;48.626;12.486;2023-05-02T09:31:57;11.80;;;10.80;;
12840;SDS011;6487;48.626;12.486;2023-05-02T09:34:25;12.23;;;11.23;;
12840;SDS011;6487;48.626;12.486;2023-05-02T09:36:54;12.03;;;10.83;;
12840;SDS011;6487;48.626;12.486;2023-05-02T09:39:23;11.30;;;10.40;;
12840;SDS011;6487;48.626;12.486;2023-05-02T09:41:54;11.80;;;10.80;;
12840;SDS011;6487;48.626;12.486;2023-05-02T09:44:24;10.63;;;9.83;;
12840;SDS011;6487;48.626;12.486;2023-05-02T09:46:55;11.83;;;10.87;;
12840;SDS011;6487;48.626;12.486;2023-05-02T09:49:38;11.60;;;10.57;;
12840;SDS011;6487;48.626;12.486;2023-05-02T09:52:11;12.57;;;11.40;;
12840;SDS011;6487;48.626;12.486;2023-05-02T09:54:40;15.43;;;14.17;;
12840;SDS011;6487;48.626;12.486;2023-05-02T09:57:09;15.20;;;14.03;;
12840;SDS011;6487;48.626;12.486;2023-05-02T09:59:37;12.87;;;11.80;;
12840;SDS011;6487;48.626;12.486;2023-05-02T10:02:08;12.43;;;11.20;;
12840;SDS011;6487;48.626;12.486;2023-05-02T10:04:38;12.30;;;11.20;;
12840;SDS011;6487;48.626;12.486;2023-05-02T10:07:08;11.97;;;11.00;;
12840;SDS011;6487;48.626;12.486;2023-05-02T10:09:40;11.47;;;10.47;;
12840;SDS011;6487;48.626;12.486;2023-05-02T10:12:13;11.83;;;10.77;;
12840;SDS011;6487;48.626;12.486;2023-05-02T10:14:44;11.43;;;10.50;;
12840;SDS011;6487;48.626;12.486;2023-05-02T10:17:21;11.90;;;10.80;;
12840;SDS011;6487;48.626;12.486;2023-05-02T10:20:02;10.63;;;9.73;;
12840;SDS011;6487;48.626;12.486;2023-05-02T10:22:32;10.63;;;9.63;;
12840;SDS011;6487;48.626;12.486;2023-05-02T10:25:04;12.43;;;11.00;;
12840;SDS011;6487;48.626;12.486;2023-05-02T10:27:34;12.37;;;11.17;;
12840;SDS011;6487;48.626;12.486;2023-05-02T10:30:03;10.50;;;9.70;;
12840;SDS011;6487;48.626;12.486;2023-05-02T10:32:35;12.07;;;11.07;;
12840;SDS011;6487;48.626;12.486;2023-05-02T10:35:05;11.37;;;10.47;;
12840;SDS011;6487;48.626;12.486;2023-05-02T10:37:34;12.13;;;11.13;;
12840;SDS011;6487;48.626;12.486;2023-05-02T10:40:05;11.77;;;10.83;;
12840;SDS011;6487;48.626;12.486;2023-05-02T10:42:38;11.20;;;10.30;;
12840;SDS011;6487;48.626;12.486;2023-05-02T10:45:11;10.60;;;9.80;;
12840;SDS011;6487;48.626;12.486;2023-05-02T10:50:45;11.63;;;10.57;;
12840;SDS011;6487;48.626;12.486;2023-05-02T10:53:27;10.30;;;9.43;;
12840;SDS011;6487;48.626;12.486;2023-05-02T10:56:12;11.83;;;10.83;;
12840;SDS011;6487;48.626;12.486;2023-05-02T10:58:47;12.87;;;11.77;;
12840;SDS011;6487;48.626;12.486;2023-05-02T11:01:33;12.70;;;11.53;;
12840;SDS011;6487;48.626;12.486;2023-05-02T11:04:05;12.90;;;11.70;;
12840;SDS011;6487;48.626;12.486;2023-05-02T11:06:35;13.07;;;11.87;;
12840;SDS011;6487;48.626;12.486;2023-05-02T11:12:01;12.10;;;11.03;;
12840;SDS011;6487;48.626;12.486;2023-05-02T11:14:43;13.73;;;12.43;;
12840;SDS011;6487;48.626;12.486;2023-05-02T11:17:16;16.20;;;14.60;;
12840;SDS011;6487;48.626;12.486;2023-05-02T11:22:53;18.13;;;15.93;;
12840;SDS011;6487;48.626;12.486;2023-05-02T11:25:33;20.87;;;18.90;;
12840;SDS011;6487;48.626;12.486;2023-05-02T11:28:38;17.93;;;16.17;;
12840;SDS011;6487;48.626;12.486;2023-05-02T11:34:21;16.80;;;15.40;;
12840;SDS011;6487;48.626;12.486;2023-05-02T11:36:51;16.60;;;15.30;;
12840;SDS011;6487;48.626;12.486;2023-05-02T11:39:19;17.70;;;16.30;;
12840;SDS011;6487;48.626;12.486;2023-05-02T11:41:48;17.70;;;16.30;;
12840;SDS011;6487;48.626;12.486;2023-05-02T11:44:17;18.80;;;17.17;;
12840;SDS011;6487;48.626;12.486;2023-05-02T11:46:45;18.30;;;16.70;;
12840;SDS011;6487;48.626;12.486;2023-05-02T11:49:14;18.03;;;16.60;;
12840;SDS011;6487;48.626;12.486;2023-05-02T11:51:42;18.40;;;16.80;;
12840;SDS011;6487;48.626;12.486;2023-05-02T11:54:16;17.40;;;15.97;;
12840;SDS011;6487;48.626;12.486;2023-05-02T11:56:46;17.60;;;16.13;;
12840;SDS011;6487;48.626;12.486;2023-05-02T11:59:15;16.80;;;15.37;;
12840;SDS011;6487;48.626;12.486;2023-05-02T12:01:46;17.17;;;15.77;;
12840;SDS011;6487;48.626;12.486;2023-05-02T12:04:15;17.87;;;16.27;;
12840;SDS011;6487;48.626;12.486;2023-05-02T12:06:53;18.57;;;16.90;;
12840;SDS011;6487;48.626;12.486;2023-05-02T12:09:23;18.20;;;16.40;;
12840;SDS011;6487;48.626;12.486;2023-05-02T12:11:52;18.07;;;16.37;;
12840;SDS011;6487;48.626;12.486;2023-05-02T12:14:27;18.47;;;16.93;;
12840;SDS011;6487;48.626;12.486;2023-05-02T12:17:02;18.40;;;16.83;;
12840;SDS011;6487;48.626;12.486;2023-05-02T12:19:32;18.00;;;16.50;;
12840;SDS011;6487;48.626;12.486;2023-05-02T12:22:03;16.77;;;15.40;;
12840;SDS011;6487;48.626;12.486;2023-05-02T12:24:34;16.10;;;14.83;;
12840;SDS011;6487;48.626;12.486;2023-05-02T12:27:12;17.23;;;15.93;;
12840;SDS011;6487;48.626;12.486;2023-05-02T12:29:45;17.13;;;15.73;;
12840;SDS011;6487;48.626;12.486;2023-05-02T12:32:15;15.60;;;14.40;;
12840;SDS011;6487;48.626;12.486;2023-05-02T12:34:58;14.43;;;13.27;;
12840;SDS011;6487;48.626;12.486;2023-05-02T12:37:29;14.03;;;12.97;;
12840;SDS011;6487;48.626;12.486;2023-05-02T12:39:58;13.20;;;12.00;;
12840;SDS011;6487;48.626;12.486;2023-05-02T12:42:27;14.80;;;13.60;;
12840;SDS011;6487;48.626;12.486;2023-05-02T12:44:59;14.63;;;13.50;;
12840;SDS011;6487;48.626;12.486;2023-05-02T12:47:46;13.30;;;12.10;;
12840;SDS011;6487;48.626;12.486;2023-05-02T12:50:14;12.23;;;11.27;;
12840;SDS011;6487;48.626;12.486;2023-05-02T12:52:46;11.90;;;10.90;;
12840;SDS011;6487;48.626;12.486;2023-05-02T12:55:18;10.37;;;9.57;;
12840;SDS011;6487;48.626;12.486;2023-05-02T12:57:49;10.33;;;9.43;;
12840;SDS011;6487;48.626;12.486;2023-05-02T13:00:26;10.13;;;9.33;;
12840;SDS011;6487;48.626;12.486;2023-05-02T13:02:55;10.70;;;9.83;;
12840;SDS011;6487;48.626;12.486;2023-05-02T13:05:23;10.00;;;9.10;;
12840;SDS011;6487;48.626;12.486;2023-05-02T13:07:52;9.53;;;8.73;;
12840;SDS011;6487;48.626;12.486;2023-05-02T13:10:23;8.77;;;8.07;;
12840;SDS011;6487;48.626;12.486;2023-05-02T13:12:52;10.07;;;9.07;;
12840;SDS011;6487;48.626;12.486;2023-05-02T13:15:21;9.70;;;8.70;;
12840;SDS011;6487;48.626;12.486;2023-05-02T13:17:50;10.37;;;9.57;;
12840;SDS011;6487;48.626;12.486;2023-05-02T13:20:18;12.13;;;11.20;;
12840;SDS011;6487;48.626;12.486;2023-05-02T13:22:47;11.33;;;10.43;;
12840;SDS011;6487;48.626;12.486;2023-05-02T13:25:15;12.00;;;10.80;;
12840;SDS011;6487;48.626;12.486;2023-05-02T13:27:45;10.93;;;9.93;;
12840;SDS011;6487;48.626;12.486;2023-05-02T13:30:13;10.20;;;9.20;;
12840;SDS011;6487;48.626;12.486;2023-05-02T13:32:42;9.10;;;8.40;;
12840;SDS011;6487;48.626;12.486;2023-05-02T13:35:10;11.10;;;9.47;;
12840;SDS011;6487;48.626;12.486;2023-05-02T13:37:39;10.60;;;9.70;;
12840;SDS011;6487;48.626;12.486;2023-05-02T13:40:07;14.17;;;12.77;;
12840;SDS011;6487;48.626;12.486;2023-05-02T13:42:37;13.20;;;11.80;;
12840;SDS011;6487;48.626;12.486;2023-05-02T13:45:07;12.33;;;11.27;;
12840;SDS011;6487;48.626;12.486;2023-05-02T13:47:36;12.70;;;11.80;;
12840;SDS011;6487;48.626;12.486;2023-05-02T13:50:07;13.47;;;12.23;;
12840;SDS011;6487;48.626;12.486;2023-05-02T13:52:35;13.30;;;12.13;;
12840;SDS011;6487;48.626;12.486;2023-05-02T13:55:04;13.27;;;12.17;;
12840;SDS011;6487;48.626;12.486;2023-05-02T13:57:33;13.13;;;12.10;;
12840;SDS011;6487;48.626;12.486;2023-05-02T14:00:02;12.77;;;11.73;;
12840;SDS011;6487;48.626;12.486;2023-05-02T14:02:34;12.83;;;11.73;;
12840;SDS011;6487;48.626;12.486;2023-05-02T14:05:03;11.33;;;10.33;;
12840;SDS011;6487;48.626;12.486;2023-05-02T14:07:33;12.30;;;11.20;;
12840;SDS011;6487;48.626;12.486;2023-05-02T14:10:01;12.70;;;11.60;;
12840;SDS011;6487;48.626;12.486;2023-05-02T14:12:33;11.57;;;10.53;;
12840;SDS011;6487;48.626;12.486;2023-05-02T14:15:01;12.03;;;10.83;;
12840;SDS011;6487;48.626;12.486;2023-05-02T14:17:30;11.60;;;10.40;;
12840;SDS011;6487;48.626;12.486;2023-05-02T14:20:03;10.70;;;9.67;;
12840;SDS011;6487;48.626;12.486;2023-05-02T14:22:33;10.57;;;9.67;;
12840;SDS011;6487;48.626;12.486;2023-05-02T14:25:01;10.90;;;10.00;;
12840;SDS011;6487;48.626;12.486;2023-05-02T14:27:30;10.40;;;9.50;;
12840;SDS011;6487;48.626;12.486;2023-05-02T14:29:59;12.40;;;10.43;;
12840;SDS011;6487;48.626;12.486;2023-05-02T14:32:27;11.03;;;10.03;;
12840;SDS011;6487;48.626;12.486;2023-05-02T14:34:56;11.77;;;10.67;;
12840;SDS011;6487;48.626;12.486;2023-05-02T14:37:26;12.50;;;11.30;;
12840;SDS011;6487;48.626;12.486;2023-05-02T14:39:57;12.67;;;11.67;;
12840;SDS011;6487;48.626;12.486;2023-05-02T14:42:30;12.47;;;11.47;;
12840;SDS011;6487;48.626;12.486;2023-05-02T14:44:59;11.20;;;10.20;;
12840;SDS011;6487;48.626;12.486;2023-05-02T14:47:27;11.37;;;10.47;;
12840;SDS011;6487;48.626;12.486;2023-05-02T14:49:56;10.63;;;9.83;;
12840;SDS011;6487;48.626;12.486;2023-05-02T14:52:27;11.00;;;10.10;;
12840;SDS011;6487;48.626;12.486;2023-05-02T14:54:57;11.23;;;10.23;;
12840;SDS011;6487;48.626;12.486;2023-05-02T14:57:28;10.50;;;9.60;;
12840;SDS011;6487;48.626;12.486;2023-05-02T14:59:56;9.83;;;8.83;;
12840;SDS011;6487;48.626;12.486;2023-05-02T15:02:25;8.60;;;7.77;;
12840;SDS011;6487;48.626;12.486;2023-05-02T15:04:53;8.40;;;7.80;;
12840;SDS011;6487;48.626;12.486;2023-05-02T15:07:23;8.73;;;8.03;;